Artesia, New Mexico
Current Conditions -  °F | °C
As of 2:51 AM on Saturday 01 Nov 2014 (Local Time) from KROW Reporting Station
Clear Clear  
Wind Chill: 44°   Ceiling: Unl
Heat Index: 47°   Visibility: 10mi
Dew Point: 36°   Wind: 7mph
Humidity: 66%   Direction: 160°SSE
Pressure: 30.26"   Gusts: NA
Location:  32.84°N, 104.39°W
Report Text: KROW 010851Z AUTO 16006KT 10SM CLR 08/02 A3026 RMK AO2 SLP210 T00830022 58010
Loading
Personal Weather Stations






























Interactive Weather Map
Tropical Storm Tracking
New forecast layout! Learn more

10-Day Weather Forecast

Advertisements
Track Severe Weather on mobile